Time;durP1;ratioP1;P1;durP2;ratioP2;P2;SDS_P1;SDS_P2;PMS_P1;PMS_P2;Temp;Humidity;BMP_temperature;BMP_pressure;BME280_temperature;BME280_humidity;BME280_pressure;Samples;Min_cycle;Max_cycle;Signal;HPM_P1;HPM_P2
2022/06/24 00:01:55;;;;;;;8.13;2.35;;;;;;;24.35;30.52;98560.37;4472299;32;20101;-80
2022/06/24 00:04:25;;;;;;;8.05;2.42;;;;;;;24.36;30.62;98562.06;4469810;32;20097;-79
2022/06/24 00:06:51;;;;;;;6.18;2.08;;;;;;;24.30;30.71;98554.72;4463336;32;20085;-79
2022/06/24 00:09:16;;;;;;;6.93;2.33;;;;;;;24.32;30.70;98558.06;4448357;32;20125;-79
2022/06/24 00:11:42;;;;;;;6.62;2.30;;;;;;;24.31;30.65;98559.06;4456768;32;20136;-80
2022/06/24 00:14:11;;;;;;;7.03;2.17;;;;;;;24.27;30.54;98555.88;4456769;32;20142;-79
2022/06/24 00:17:12;;;;;;;8.38;2.40;;;;;;;24.29;30.55;98561.09;4456708;32;20108;-79
2022/06/24 00:20:08;;;;;;;7.97;2.47;;;;;;;24.29;30.72;98555.72;4456610;32;20097;-80
2022/06/24 00:22:42;;;;;;;7.07;2.30;;;;;;;24.28;30.72;98562.09;4455575;32;20468;-78
2022/06/24 00:25:12;;;;;;;6.97;2.40;;;;;;;24.22;30.82;98569.06;4455366;32;20077;-78
2022/06/24 00:27:39;;;;;;;8.38;2.40;;;;;;;24.22;30.93;98563.66;4455472;32;20123;-79
2022/06/24 00:30:14;;;;;;;7.47;2.20;;;;;;;24.19;30.93;98563.19;4456640;32;20168;-78
2022/06/24 00:32:41;;;;;;;9.63;2.47;;;;;;;24.21;30.96;98567.37;4455513;32;20181;-79
2022/06/24 00:35:13;;;;;;;8.90;2.58;;;;;;;24.18;31.01;98564.19;4456818;32;20116;-78
2022/06/24 00:37:40;;;;;;;7.35;2.40;;;;;;;24.17;31.15;98566.03;4455084;32;20420;-78
2022/06/24 00:40:09;;;;;;;9.15;2.15;;;;;;;24.13;31.15;98568.25;4455015;32;20132;-78
2022/06/24 00:42:36;;;;;;;8.60;2.33;;;;;;;24.16;31.19;98569.72;4456225;32;20092;-78
2022/06/24 00:45:09;;;;;;;;;;;;;;;24.13;31.35;98564.72;4455698;32;20098;-78
2022/06/24 00:47:37;;;;;;;7.55;2.47;;;;;;;24.21;31.24;98561.97;4456549;32;19983;-78
2022/06/24 00:50:06;;;;;;;8.40;2.42;;;;;;;24.11;31.42;98564.06;4455305;32;20129;-78
2022/06/24 00:52:37;;;;;;;7.25;2.45;;;;;;;24.09;31.46;98549.94;4455342;32;20491;-78
2022/06/24 00:55:03;;;;;;;7.75;2.60;;;;;;;24.06;31.70;98553.81;4455470;32;20085;-78
2022/06/24 00:57:35;;;;;;;6.03;2.28;;;;;;;24.03;31.79;98551.50;4463142;32;20115;-79
2022/06/24 01:00:01;;;;;;;7.00;2.22;;;;;;;24.02;31.50;98557.88;4472206;32;20101;-79
2022/06/24 01:02:28;;;;;;;8.27;2.65;;;;;;;23.99;31.50;98547.47;4471038;32;20096;-79
2022/06/24 01:05:04;;;;;;;6.12;2.30;;;;;;;23.98;31.49;98556.53;4471190;32;20089;-78
2022/06/24 01:07:29;;;;;;;8.88;2.37;;;;;;;23.98;31.55;98543.09;4470703;32;20072;-79
2022/06/24 01:09:55;;;;;;;6.82;2.40;;;;;;;23.92;31.55;98547.31;4471764;32;20110;-78
2022/06/24 01:12:20;;;;;;;8.65;2.40;;;;;;;23.91;31.56;98540.28;4471813;32;20352;-79
2022/06/24 01:14:45;;;;;;;6.05;2.20;;;;;;;23.90;31.54;98541.28;4470620;32;20097;-78
2022/06/24 01:17:11;;;;;;;8.88;2.33;;;;;;;23.89;31.57;98539.63;4471670;32;20356;-78
2022/06/24 01:19:36;;;;;;;7.32;2.22;;;;;;;23.90;31.64;98537.75;4470597;32;20146;-79
2022/06/24 01:22:02;;;;;;;7.57;2.20;;;;;;;23.87;31.70;98538.91;4470683;32;20097;-79
2022/06/24 01:24:27;;;;;;;6.62;2.30;;;;;;;23.84;31.74;98538.47;4471765;32;20081;-79
2022/06/24 01:26:57;;;;;;;7.32;2.20;;;;;;;23.82;31.78;98533.25;4471650;32;20084;-79
2022/06/24 01:29:24;;;;;;;7.97;2.67;;;;;;;23.81;31.76;98531.56;4470487;32;20109;-78
2022/06/24 01:31:52;;;;;;;8.68;2.33;;;;;;;23.80;31.74;98532.59;4471746;32;20137;-79
2022/06/24 01:34:19;;;;;;;6.68;2.30;;;;;;;23.81;31.71;98536.09;4471879;32;20108;-79
2022/06/24 01:36:45;;;;;;;8.17;2.50;;;;;;;23.78;31.85;98533.72;4470383;32;20085;-78
2022/06/24 01:39:10;;;;;;;7.60;2.35;;;;;;;23.78;31.96;98539.09;4471723;32;20136;-78
2022/06/24 01:41:36;;;;;;;6.80;2.25;;;;;;;23.75;32.05;98535.75;4470446;32;20093;-79
2022/06/24 01:44:02;;;;;;;6.97;2.22;;;;;;;23.72;32.07;98538.81;4471972;32;20092;-79
2022/06/24 01:46:29;;;;;;;8.75;2.20;;;;;;;23.69;32.16;98547.22;4457691;32;20097;-78
2022/06/24 01:48:54;;;;;;;7.43;2.47;;;;;;;23.67;32.23;98546.53;4471861;32;20751;-78
2022/06/24 01:51:21;;;;;;;6.85;2.20;;;;;;;23.68;32.22;98547.38;4471841;32;20115;-78
2022/06/24 01:53:46;;;;;;;8.20;2.17;;;;;;;23.65;32.19;98547.75;4470493;32;20111;-78
2022/06/24 01:56:12;;;;;;;5.45;2.10;;;;;;;23.68;32.21;98545.53;4470197;32;20169;-78
2022/06/24 01:58:37;;;;;;;6.20;2.25;;;;;;;23.45;32.67;98544.59;4486916;32;20106;-78
2022/06/24 02:01:03;;;;;;;9.45;2.40;;;;;;;23.50;32.54;98545.75;4487454;32;20107;-78
2022/06/24 02:03:29;;;;;;;7.53;2.20;;;;;;;23.52;32.56;98534.84;4487517;32;20104;-78
2022/06/24 02:05:55;;;;;;;6.32;2.28;;;;;;;23.49;32.67;98540.56;4473154;32;20372;-78
2022/06/24 02:08:21;;;;;;;6.32;2.12;;;;;;;23.49;32.64;98535.19;4473146;32;20413;-78
2022/06/24 02:13:30;;;;;;;7.62;2.10;;;;;;;23.44;33.09;98537.56;4475095;32;20139;-78
2022/06/24 02:16:04;;;;;;;6.90;2.10;;;;;;;23.35;33.48;98542.97;4487136;32;20406;-78
2022/06/24 02:18:30;;;;;;;7.62;2.33;;;;;;;23.32;33.30;98535.22;4487107;32;20108;-78
2022/06/24 02:20:57;;;;;;;6.60;2.10;;;;;;;23.31;32.97;98533.56;4472880;32;20100;-78
2022/06/24 02:23:24;;;;;;;6.82;2.30;;;;;;;23.29;33.01;98534.72;4472947;32;20076;-78
2022/06/24 02:25:50;;;;;;;7.30;2.30;;;;;;;23.24;33.18;98531.72;4472708;32;20099;-78
2022/06/24 02:28:17;;;;;;;7.35;2.35;;;;;;;23.26;33.05;98537.75;4472855;32;20134;-78
2022/06/24 02:30:43;;;;;;;9.90;2.53;;;;;;;23.25;33.14;98538.75;4487054;32;20152;-78
2022/06/24 02:33:09;;;;;;;6.50;2.17;;;;;;;23.24;33.12;98537.09;4487269;32;20131;-78
2022/06/24 02:35:36;;;;;;;6.95;2.60;;;;;;;23.20;33.26;98541.12;4472592;32;20110;-78
2022/06/24 02:38:01;;;;;;;7.50;2.30;;;;;;;23.19;33.25;98536.75;4472966;32;20112;-79
2022/06/24 02:40:45;;;;;;;6.85;2.28;;;;;;;23.19;33.12;98540.28;4487168;32;20108;-78
2022/06/24 02:43:20;;;;;;;6.05;2.12;;;;;;;23.21;33.17;98540.13;4475147;32;20106;-78
2022/06/24 02:45:53;;;;;;;6.53;1.92;;;;;;;23.17;33.29;98539.63;4472953;32;20133;-78
2022/06/24 02:48:21;;;;;;;8.80;2.20;;;;;;;23.17;33.30;98536.94;4487262;32;20077;-78
2022/06/24 02:50:51;;;;;;;5.87;2.25;;;;;;;23.20;33.49;98538.44;4472526;32;20164;-77
2022/06/24 02:53:18;;;;;;;9.07;2.30;;;;;;;23.22;33.48;98541.78;4486772;32;20107;-78
2022/06/24 02:55:45;;;;;;;5.47;2.00;;;;;;;23.17;33.63;98545.00;4472394;32;20111;-78
2022/06/24 02:58:11;;;;;;;7.45;2.20;;;;;;;23.15;33.67;98537.09;4486562;32;20714;-79
2022/06/24 03:00:39;;;;;;;7.57;2.28;;;;;;;23.15;33.71;98536.25;4472486;32;20138;-77
2022/06/24 03:03:05;;;;;;;6.18;1.83;;;;;;;23.18;33.36;98535.94;4472383;32;20088;-77
2022/06/24 03:05:30;;;;;;;5.22;2.15;;;;;;;23.22;33.22;98536.41;4486183;32;20073;-77
2022/06/24 03:07:56;;;;;;;6.62;2.00;;;;;;;23.28;33.33;98528.50;4486531;32;20096;-79
2022/06/24 03:10:22;;;;;;;6.25;2.20;;;;;;;23.29;33.60;98532.03;4472450;32;20443;-79
2022/06/24 03:12:47;;;;;;;6.12;2.10;;;;;;;23.34;33.46;98543.13;4472523;32;20121;-79
2022/06/24 03:15:13;;;;;;;8.15;2.55;;;;;;;23.38;33.45;98543.63;4472587;32;20073;-79
2022/06/24 03:17:39;;;;;;;8.93;2.50;;;;;;;23.42;33.45;98543.09;4472546;32;20543;-78
2022/06/24 03:20:06;;;;;;;8.80;2.10;;;;;;;23.40;33.88;98547.81;4472065;32;20159;-78
2022/06/24 03:22:32;;;;;;;7.97;2.08;;;;;;;23.43;33.67;98547.47;4472130;32;20130;-79
2022/06/24 03:24:57;;;;;;;5.55;1.70;;;;;;;23.56;33.28;98546.91;4486332;32;20084;-78
2022/06/24 03:27:22;;;;;;;8.38;2.53;;;;;;;23.59;33.30;98546.56;4486286;32;20093;-78
2022/06/24 03:29:48;;;;;;;7.70;2.42;;;;;;;23.70;33.08;98540.84;4486246;32;20123;-79
2022/06/24 03:32:13;;;;;;;7.40;2.17;;;;;;;23.75;33.08;98543.81;4486168;32;20432;-78
2022/06/24 03:34:39;;;;;;;6.87;2.22;;;;;;;23.82;33.13;98544.00;4471927;32;20102;-78
2022/06/24 03:37:04;;;;;;;6.93;1.98;;;;;;;23.92;33.02;98541.09;4485964;32;20089;-79
2022/06/24 03:39:30;;;;;;;6.62;2.03;;;;;;;24.00;32.65;98541.06;4486141;32;20088;-79
2022/06/24 03:41:55;;;;;;;7.70;2.33;;;;;;;24.05;32.47;98544.06;4486063;32;20084;-77
2022/06/24 03:44:21;;;;;;;7.00;2.20;;;;;;;24.12;32.67;98547.72;4486010;32;20452;-78
2022/06/24 03:46:46;;;;;;;7.50;2.40;;;;;;;24.24;32.59;98555.41;4471736;32;20160;-78
2022/06/24 03:49:11;;;;;;;6.30;2.08;;;;;;;24.32;32.22;98550.81;4485954;32;20100;-78
2022/06/24 03:51:37;;;;;;;5.65;2.08;;;;;;;24.37;32.15;98552.97;4485795;32;20419;-78
2022/06/24 03:54:02;;;;;;;7.28;2.20;;;;;;;24.49;31.68;98551.56;4471613;32;20107;-78
2022/06/24 03:56:28;;;;;;;6.70;1.98;;;;;;;24.64;31.59;98551.63;4485560;32;20092;-78
2022/06/24 03:58:53;;;;;;;8.07;2.40;;;;;;;24.73;31.76;98550.56;4485861;32;20089;-79
2022/06/24 04:01:19;;;;;;;8.23;2.05;;;;;;;24.85;31.31;98553.66;4486008;32;20118;-78
2022/06/24 04:03:44;;;;;;;9.60;2.20;;;;;;;24.95;31.26;98547.19;4471835;32;20357;-79
2022/06/24 04:06:10;;;;;;;10.48;2.35;;;;;;;25.04;30.97;98546.09;4471365;32;20092;-79
2022/06/24 04:08:35;;;;;;;15.98;2.40;;;;;;;25.20;30.92;98545.09;4471485;32;20092;-78
2022/06/24 04:11:14;;;;;;;6.15;2.08;;;;;;;25.28;30.76;98548.59;4471386;32;20084;-79
2022/06/24 04:13:40;;;;;;;6.53;2.00;;;;;;;25.38;30.53;98547.47;4485537;32;20098;-79
2022/06/24 04:16:05;;;;;;;7.57;2.15;;;;;;;25.48;30.58;98548.88;4472050;32;20093;-79
2022/06/24 04:18:31;;;;;;;9.35;2.20;;;;;;;25.56;30.38;98556.06;4487885;32;20095;-78
2022/06/24 04:20:57;;;;;;;6.93;2.20;;;;;;;25.68;30.16;98554.56;4473618;32;20087;-79
2022/06/24 04:23:22;;;;;;;6.95;2.10;;;;;;;25.85;29.79;98546.28;4487905;32;20072;-78
2022/06/24 04:25:48;;;;;;;6.60;2.47;;;;;;;25.99;29.54;98550.00;4487703;32;20436;-78
2022/06/24 04:28:14;;;;;;;6.57;2.33;;;;;;;26.14;29.19;98556.22;4473817;32;20123;-78
2022/06/24 04:30:39;;;;;;;5.70;2.08;;;;;;;26.29;29.15;98550.78;4487897;32;20141;-78
2022/06/24 04:33:05;;;;;;;5.95;2.30;;;;;;;26.44;28.99;98557.00;4487833;32;20084;-79
2022/06/24 04:35:30;;;;;;;7.15;2.12;;;;;;;26.65;28.75;98547.22;4473491;32;20124;-78
2022/06/24 04:37:56;;;;;;;8.13;2.00;;;;;;;26.77;28.66;98548.41;4473496;32;20376;-79
2022/06/24 04:40:21;;;;;;;9.48;2.47;;;;;;;26.86;28.34;98554.50;4487855;32;20462;-79
2022/06/24 04:42:47;;;;;;;6.68;2.20;;;;;;;26.99;28.35;98556.50;4473492;32;20110;-79
2022/06/24 04:45:12;;;;;;;18.83;3.15;;;;;;;27.11;28.21;98557.62;4473476;32;20089;-79
2022/06/24 04:47:38;;;;;;;8.68;2.10;;;;;;;27.24;27.91;98557.75;4487708;32;20107;-79
2022/06/24 04:50:05;;;;;;;5.57;2.10;;;;;;;27.33;27.70;98554.91;4473334;32;20105;-78
2022/06/24 04:52:31;;;;;;;6.50;2.22;;;;;;;27.45;27.79;98556.88;4487832;32;20093;-79
2022/06/24 04:54:57;;;;;;;20.62;2.70;;;;;;;27.58;27.58;98558.84;4487915;32;20088;-79
2022/06/24 04:57:23;;;;;;;11.30;2.45;;;;;;;27.73;27.28;98563.28;4487625;32;20111;-78
2022/06/24 04:59:48;;;;;;;19.67;3.17;;;;;;;27.89;27.46;98554.84;4487549;32;20116;-79
2022/06/24 05:02:14;;;;;;;21.73;2.85;;;;;;;28.01;26.94;98549.72;4487608;32;20084;-78
2022/06/24 05:04:39;;;;;;;5.97;2.10;;;;;;;28.06;27.05;98546.38;4487387;32;20096;-78
2022/06/24 05:07:05;;;;;;;8.00;2.33;;;;;;;28.12;26.71;98551.00;4487661;32;20468;-78
2022/06/24 05:09:30;;;;;;;8.60;2.55;;;;;;;28.22;26.61;98555.00;4473256;32;20096;-79
2022/06/24 05:11:56;;;;;;;8.50;2.60;;;;;;;28.37;26.54;98556.69;4473282;32;20077;-79
2022/06/24 05:14:21;;;;;;;7.00;2.30;;;;;;;28.44;26.48;98552.97;4473280;32;20119;-78
2022/06/24 05:16:47;;;;;;;8.20;2.80;;;;;;;28.52;26.32;98548.44;4487346;32;20108;-79
2022/06/24 05:19:12;;;;;;;6.20;2.28;;;;;;;28.55;25.95;98554.28;4487487;32;20089;-79
2022/06/24 05:21:38;;;;;;;7.62;2.35;;;;;;;28.58;26.00;98548.44;4493950;31;20084;-79
2022/06/24 05:24:04;;;;;;;10.45;2.37;;;;;;;28.60;26.14;98553.66;4475052;32;20139;-78
2022/06/24 05:26:29;;;;;;;11.32;2.58;;;;;;;28.71;25.93;98557.66;4487169;32;20489;-79
2022/06/24 05:28:54;;;;;;;8.18;2.47;;;;;;;28.70;25.72;98550.53;4473100;32;20111;-79
2022/06/24 05:31:20;;;;;;;14.63;2.70;;;;;;;28.69;25.63;98557.84;4487353;32;20442;-80
2022/06/24 05:33:45;;;;;;;8.20;2.20;;;;;;;28.80;25.65;98559.09;4487273;32;20371;-80
2022/06/24 05:36:11;;;;;;;7.97;2.30;;;;;;;28.80;25.65;98559.97;4472936;32;20100;-79
2022/06/24 05:38:36;;;;;;;9.23;2.53;;;;;;;28.88;25.50;98566.19;4473042;32;20104;-81
2022/06/24 05:41:03;;;;;;;18.77;3.05;;;;;;;29.05;25.38;98564.75;4487302;32;20076;-80
2022/06/24 05:43:29;;;;;;;12.83;3.00;;;;;;;29.04;25.76;98570.41;4487301;32;20149;-83
2022/06/24 05:45:54;;;;;;;5.80;2.12;;;;;;;29.08;25.39;98567.06;4482232;31;20440;-83
2022/06/24 05:48:20;;;;;;;7.57;2.37;;;;;;;29.13;25.15;98575.44;4478181;32;20115;-84
2022/06/24 05:50:45;;;;;;;7.85;2.28;;;;;;;29.27;25.01;98576.28;4471327;32;20118;-84
2022/06/24 05:56:00;;;;;;;6.60;2.20;;;;;;;29.23;25.25;98587.75;4485835;32;20578;-83
2022/06/24 05:58:33;;;;;;;10.48;2.90;;;;;;;29.33;25.21;98578.13;4477731;32;20083;-82
2022/06/24 06:00:59;;;;;;;7.72;2.50;;;;;;;29.31;25.29;98579.41;4486022;32;20095;-82
2022/06/24 06:03:26;;;;;;;14.65;2.60;;;;;;;29.42;24.92;98584.19;4485751;31;20132;-83
2022/06/24 06:05:52;;;;;;;8.27;2.42;;;;;;;29.44;24.77;98582.09;4470607;32;20100;-83
2022/06/24 06:08:17;;;;;;;6.32;2.50;;;;;;;29.54;24.69;98577.06;4469601;32;20135;-83
2022/06/24 06:10:46;;;;;;;28.42;3.80;;;;;;;29.53;24.68;98580.81;4496397;31;20139;-83
2022/06/24 06:13:12;;;;;;;7.82;2.67;;;;;;;29.48;24.73;98586.06;4487271;31;20097;-82
2022/06/24 06:15:37;;;;;;;7.47;2.65;;;;;;;29.42;24.85;98581.47;4482745;32;20120;-82
2022/06/24 06:18:03;;;;;;;8.55;2.67;;;;;;;29.43;24.97;98580.41;4485580;32;20261;-83
2022/06/24 06:20:28;;;;;;;6.97;2.80;;;;;;;29.40;25.17;98587.12;4485288;31;20185;-84
2022/06/24 06:22:54;;;;;;;7.62;2.37;;;;;;;29.43;25.22;98583.13;4471099;32;20463;-82
2022/06/24 06:25:19;;;;;;;9.32;2.40;;;;;;;29.21;25.33;98582.53;4473100;31;20108;-81
2022/06/24 06:27:45;;;;;;;7.53;2.50;;;;;;;29.34;26.08;98581.69;4496510;31;20379;-81
2022/06/24 06:30:11;;;;;;;7.35;2.40;;;;;;;29.32;25.38;98583.75;4485164;32;20141;-86
2022/06/24 06:32:36;;;;;;;7.93;2.45;;;;;;;29.46;25.29;98579.16;4463353;32;20120;-81
2022/06/24 06:35:05;;;;;;;8.77;2.40;;;;;;;29.11;25.35;98576.63;4485097;32;20345;-81
2022/06/24 06:37:31;;;;;;;6.60;2.25;;;;;;;29.43;25.44;98576.88;4471118;31;20463;-78
2022/06/24 06:39:56;;;;;;;8.90;2.33;;;;;;;29.29;25.68;98581.50;4491538;31;20122;-81
2022/06/24 06:42:22;;;;;;;12.07;2.70;;;;;;;29.43;25.73;98580.41;4486013;32;20142;-81
2022/06/24 06:44:47;;;;;;;7.37;2.35;;;;;;;29.55;25.62;98572.47;4486286;32;20097;-81
2022/06/24 06:47:13;;;;;;;8.05;2.75;;;;;;;29.72;25.24;98562.00;4474497;32;20423;-79
2022/06/24 06:49:39;;;;;;;5.35;2.10;;;;;;;29.71;25.18;98565.75;4486907;32;20092;-83
2022/06/24 06:52:05;;;;;;;8.23;2.28;;;;;;;29.73;24.51;98561.81;4472560;32;20093;-81
2022/06/24 06:54:30;;;;;;;8.50;2.50;;;;;;;29.85;24.76;98558.44;4472295;32;20157;-80
2022/06/24 06:56:57;;;;;;;8.05;2.40;;;;;;;29.93;24.89;98564.47;4481098;32;165077;-81
2022/06/24 06:59:22;;;;;;;11.63;2.90;;;;;;;29.98;25.15;98561.94;4472283;32;20221;-82
2022/06/24 07:01:48;;;;;;;9.07;2.40;;;;;;;30.15;25.07;98556.88;4471229;32;20280;-84
2022/06/24 07:04:14;;;;;;;8.30;2.50;;;;;;;30.22;25.15;98559.53;4484259;32;20392;-83
2022/06/24 07:06:40;;;;;;;8.82;2.37;;;;;;;30.25;25.02;98553.69;4485164;32;20240;-83
2022/06/24 07:09:05;;;;;;;17.70;2.75;;;;;;;30.28;24.63;98557.84;4485986;32;20084;-83
2022/06/24 07:11:31;;;;;;;18.33;2.80;;;;;;;30.22;24.77;98559.53;4485944;32;20468;-83
2022/06/24 07:13:56;;;;;;;9.07;2.60;;;;;;;30.33;24.72;98552.63;4485876;32;20127;-83
2022/06/24 07:16:22;;;;;;;9.40;2.20;;;;;;;30.34;24.55;98546.97;4485868;32;20091;-83
2022/06/24 07:18:47;;;;;;;19.50;3.03;;;;;;;30.48;23.62;98560.47;4486463;32;20119;-83
2022/06/24 07:21:13;;;;;;;17.48;2.70;;;;;;;30.58;23.88;98548.09;4486440;32;20558;-83
2022/06/24 07:23:39;;;;;;;20.08;3.53;;;;;;;30.54;23.40;98548.75;4486397;32;20138;-83
2022/06/24 07:26:05;;;;;;;23.63;3.30;;;;;;;30.70;23.56;98548.22;4486365;32;20123;-83
2022/06/24 07:28:31;;;;;;;8.93;2.25;;;;;;;30.68;23.43;98544.87;4486254;32;20068;-83
2022/06/24 07:30:56;;;;;;;11.68;2.70;;;;;;;30.85;23.26;98544.34;4472019;32;20100;-83
2022/06/24 07:33:23;;;;;;;10.68;2.40;;;;;;;30.74;23.10;98551.34;4486306;32;20084;-83
2022/06/24 07:35:49;;;;;;;10.38;2.40;;;;;;;30.84;23.00;98539.97;4486243;32;20076;-83
2022/06/24 07:38:15;;;;;;;15.60;2.75;;;;;;;30.88;23.11;98549.34;4486010;32;20160;-83
2022/06/24 07:40:40;;;;;;;13.88;2.65;;;;;;;30.96;23.10;98547.22;4471951;32;20119;-83
2022/06/24 07:43:06;;;;;;;14.00;2.53;;;;;;;31.16;22.53;98541.59;4486200;32;20088;-83
2022/06/24 07:45:32;;;;;;;8.45;2.83;;;;;;;31.13;22.75;98542.03;4485971;32;20085;-83
2022/06/24 07:47:57;;;;;;;22.20;3.40;;;;;;;31.19;22.21;98534.06;4471823;32;20119;-82
2022/06/24 07:50:22;;;;;;;12.40;2.72;;;;;;;31.24;21.68;98532.31;4486891;32;20088;-83
2022/06/24 07:52:48;;;;;;;11.23;2.10;;;;;;;31.26;21.63;98532.09;4488042;32;20112;-83
2022/06/24 07:57:57;;;;;;;6.80;1.92;;;;;;;31.35;21.39;98526.16;4471234;32;20144;-83
2022/06/24 08:00:23;;;;;;;9.27;2.17;;;;;;;31.51;21.06;98529.37;4472401;32;20447;-82
2022/06/24 08:02:48;;;;;;;7.10;2.12;;;;;;;31.57;21.33;98531.19;4472391;32;20138;-83
2022/06/24 08:05:15;;;;;;;10.98;2.30;;;;;;;31.48;21.36;98521.66;4472326;32;20106;-82
2022/06/24 08:07:40;;;;;;;7.78;1.80;;;;;;;31.54;21.46;98524.31;4472285;32;20111;-82
2022/06/24 08:10:06;;;;;;;9.23;2.40;;;;;;;31.62;21.08;98522.31;4472264;32;20088;-82
2022/06/24 08:12:32;;;;;;;6.50;2.08;;;;;;;31.68;20.69;98526.88;4472389;32;20085;-83
2022/06/24 08:14:57;;;;;;;8.52;2.20;;;;;;;31.60;20.81;98521.72;4471128;32;20107;-83
2022/06/24 08:17:23;;;;;;;9.48;2.08;;;;;;;31.83;21.08;98516.41;4472174;32;20102;-83
2022/06/24 08:19:48;;;;;;;7.72;2.03;;;;;;;31.85;20.42;98516.19;4471150;32;20101;-83
2022/06/24 08:22:14;;;;;;;13.82;2.90;;;;;;;31.84;20.10;98509.94;4472273;32;20436;-82
2022/06/24 08:24:40;;;;;;;5.62;2.10;;;;;;;31.87;20.53;98511.34;4472222;32;20085;-83
2022/06/24 08:27:06;;;;;;;4.12;1.70;;;;;;;31.87;20.41;98516.78;4472201;32;20107;-83
2022/06/24 08:29:31;;;;;;;7.22;2.12;;;;;;;31.85;20.66;98510.75;4471049;32;20101;-83
2022/06/24 08:31:57;;;;;;;7.75;2.50;;;;;;;31.90;20.67;98514.47;4472273;32;20103;-83
2022/06/24 08:34:24;;;;;;;12.27;2.30;;;;;;;32.05;20.30;98519.53;4472105;32;20427;-82
2022/06/24 08:36:50;;;;;;;14.25;2.58;;;;;;;31.97;19.73;98510.81;4472076;32;20089;-83
2022/06/24 08:39:15;;;;;;;7.80;2.10;;;;;;;31.93;20.01;98521.31;4472127;32;20081;-83
2022/06/24 08:41:44;;;;;;;4.85;1.83;;;;;;;31.89;19.83;98517.41;4470978;32;20089;-83
2022/06/24 08:44:10;;;;;;;8.00;2.20;;;;;;;31.96;19.51;98515.44;4470923;32;20089;-83
2022/06/24 08:46:39;;;;;;;7.28;1.92;;;;;;;31.99;19.78;98517.72;4472005;32;20085;-81
2022/06/24 08:49:04;;;;;;;6.37;1.80;;;;;;;32.03;20.01;98515.41;4470957;32;20094;-83
2022/06/24 08:51:30;;;;;;;13.40;2.67;;;;;;;31.94;19.84;98510.22;4457797;32;20161;-83
2022/06/24 08:54:01;;;;;;;5.60;2.05;;;;;;;31.90;19.99;98508.19;4470877;32;20365;-83
2022/06/24 08:56:26;;;;;;;5.75;2.03;;;;;;;31.83;20.16;98502.81;4470805;32;20077;-83
2022/06/24 08:58:53;;;;;;;16.23;3.20;;;;;;;31.88;20.17;98511.12;4483823;32;20108;-83
2022/06/24 09:01:18;;;;;;;7.55;1.92;;;;;;;31.78;19.98;98508.13;4472812;32;20510;-83
2022/06/24 09:03:44;;;;;;;18.23;2.80;;;;;;;31.98;20.07;98496.97;4487648;32;20120;-82
2022/06/24 09:06:15;;;;;;;7.82;1.98;;;;;;;31.99;20.18;98500.50;4487810;32;20092;-81
2022/06/24 09:08:45;;;;;;;23.62;3.05;;;;;;;31.96;20.20;98504.53;4473672;32;20456;-82
2022/06/24 09:11:11;;;;;;;5.97;1.92;;;;;;;31.97;19.49;98497.19;4487843;32;20097;-83
2022/06/24 09:13:49;;;;;;;11.00;2.30;;;;;;;31.88;19.66;98502.13;4487755;32;20076;-83
2022/06/24 09:16:17;;;;;;;15.80;2.72;;;;;;;32.03;20.19;98493.59;4473064;32;20103;-83
2022/06/24 09:18:50;;;;;;;26.90;3.42;;;;;;;32.04;20.27;98487.91;4487577;32;20535;-82
2022/06/24 09:21:24;;;;;;;11.68;2.58;;;;;;;31.98;20.12;98501.59;4487795;32;20143;-82
2022/06/24 09:23:52;;;;;;;12.30;2.70;;;;;;;31.96;20.66;98504.53;4487710;32;20561;-83
2022/06/24 09:26:27;;;;;;;15.45;2.90;;;;;;;31.94;20.37;98504.75;4487650;32;20480;-82
2022/06/24 09:28:55;;;;;;;6.55;2.20;;;;;;;32.02;20.21;98508.28;4473613;32;20184;-83
2022/06/24 09:31:24;;;;;;;8.23;2.37;;;;;;;31.93;20.46;98507.72;4473505;32;20118;-83
2022/06/24 09:33:49;;;;;;;6.80;2.10;;;;;;;32.10;20.35;98488.88;4487666;32;20119;-82
2022/06/24 09:36:16;;;;;;;9.55;2.17;;;;;;;32.01;20.51;98496.53;4473271;32;20085;-83
2022/06/24 09:39:02;;;;;;;13.88;2.78;;;;;;;32.15;20.64;98494.47;4487468;32;20100;-82
2022/06/24 09:41:28;;;;;;;5.85;2.10;;;;;;;32.16;20.34;98496.12;4473965;32;20112;-83
2022/06/24 09:43:57;;;;;;;8.00;2.45;;;;;;;32.22;20.62;98506.13;4487386;32;20454;-83
2022/06/24 09:46:23;;;;;;;8.23;2.40;;;;;;;32.15;20.62;98501.81;4487296;32;20143;-83
2022/06/24 09:48:57;;;;;;;35.77;4.73;;;;;;;32.19;20.59;98497.56;4473101;32;20081;-82
2022/06/24 09:51:22;;;;;;;8.27;2.20;;;;;;;32.15;20.08;98496.38;4474062;32;20561;-82
2022/06/24 09:53:48;;;;;;;11.23;2.15;;;;;;;32.15;20.38;98491.75;4487218;32;20080;-82
2022/06/24 09:56:14;;;;;;;12.82;2.45;;;;;;;32.25;20.13;98491.19;4472953;32;20136;-83
2022/06/24 09:58:43;;;;;;;28.83;3.55;;;;;;;32.19;20.15;98487.50;4487054;32;20092;-83
2022/06/24 10:01:09;;;;;;;12.20;2.40;;;;;;;32.19;20.54;98483.94;4472980;32;20097;-83
2022/06/24 10:03:35;;;;;;;16.00;2.33;;;;;;;32.09;20.28;98484.50;4487082;32;20079;-83
2022/06/24 10:06:08;;;;;;;6.87;2.00;;;;;;;32.04;20.52;98487.06;4487135;32;20144;-83
2022/06/24 10:08:35;;;;;;;11.27;2.10;;;;;;;32.00;20.75;98485.84;4487367;32;20161;-82
2022/06/24 10:11:05;;;;;;;6.35;2.12;;;;;;;31.98;20.68;98486.06;4487412;32;20097;-83
2022/06/24 10:13:32;;;;;;;6.57;1.90;;;;;;;31.98;20.46;98480.62;4472062;32;20119;-82
2022/06/24 10:16:00;;;;;;;18.55;2.55;;;;;;;32.07;20.67;98475.72;4473184;32;20081;-82
2022/06/24 10:18:36;;;;;;;18.15;2.50;;;;;;;32.02;20.22;98475.56;4487270;32;20123;-83
2022/06/24 10:21:04;;;;;;;6.25;2.10;;;;;;;31.92;20.13;98476.91;4472902;32;20183;-83
2022/06/24 10:23:38;;;;;;;7.05;2.17;;;;;;;31.90;20.51;98470.88;4487115;32;20500;-83
2022/06/24 10:26:17;;;;;;;7.97;2.17;;;;;;;31.85;20.25;98468.03;4487030;32;20080;-82
2022/06/24 10:29:02;;;;;;;13.60;2.30;;;;;;;31.73;20.73;98467.94;4486959;32;20254;-82
2022/06/24 10:31:48;;;;;;;7.45;2.00;;;;;;;31.72;20.72;98465.47;4487001;32;20235;-82
2022/06/24 10:34:22;;;;;;;12.25;2.35;;;;;;;31.69;20.97;98464.00;4487136;32;20113;-83
2022/06/24 10:36:57;;;;;;;10.80;2.67;;;;;;;31.63;20.83;98461.37;4486886;32;20085;-83
2022/06/24 10:39:24;;;;;;;9.00;2.10;;;;;;;31.62;20.72;98452.38;4472698;32;20104;-82
2022/06/24 10:42:04;;;;;;;9.50;2.20;;;;;;;31.66;20.87;98441.84;4486902;32;20103;-82
2022/06/24 10:44:37;;;;;;;7.37;2.03;;;;;;;31.69;20.70;98441.41;4486955;32;20110;-83
2022/06/24 10:47:08;;;;;;;7.97;2.17;;;;;;;31.72;20.85;98443.69;4472552;32;20087;-83
2022/06/24 10:49:52;;;;;;;6.22;2.00;;;;;;;31.68;20.60;98440.56;4486886;32;20484;-82
2022/06/24 10:52:37;;;;;;;7.00;1.90;;;;;;;31.55;20.71;98447.00;4486853;32;20096;-82
2022/06/24 10:55:17;;;;;;;9.85;2.67;;;;;;;31.60;20.44;98437.31;4486820;32;20085;-83
2022/06/24 10:57:52;;;;;;;6.85;1.92;;;;;;;31.63;20.74;98439.59;4486409;32;20088;-83
2022/06/24 11:00:29;;;;;;;9.57;2.30;;;;;;;31.64;20.68;98425.75;4472747;32;20100;-83
2022/06/24 11:03:11;;;;;;;6.43;1.80;;;;;;;31.54;20.90;98436.34;4486719;32;20149;-83
2022/06/24 11:05:39;;;;;;;8.25;2.05;;;;;;;31.69;20.90;98427.78;4486722;32;20092;-82
2022/06/24 11:08:12;;;;;;;;;;;;;;;31.57;20.76;98416.84;4486996;32;20078;-83
2022/06/24 11:10:37;;;;;;;7.50;2.25;;;;;;;31.74;20.74;98425.22;4486759;32;20033;-82
2022/06/24 11:13:03;;;;;;;3.95;2.00;;;;;;;31.66;20.76;98422.78;4472235;32;20097;-83
2022/06/24 11:15:39;;;;;;;5.55;2.17;;;;;;;31.67;20.40;98417.13;4486483;32;20085;-82
2022/06/24 11:18:12;;;;;;;7.45;2.17;;;;;;;31.71;20.53;98420.22;4472478;32;20639;-82
2022/06/24 11:20:42;;;;;;;7.07;2.05;;;;;;;31.78;20.07;98418.25;4472221;32;20598;-83
2022/06/24 11:23:13;;;;;;;7.68;1.90;;;;;;;31.76;20.22;98423.09;4472239;32;20104;-82
2022/06/24 11:25:41;;;;;;;8.73;2.10;;;;;;;31.73;19.81;98415.37;4487403;32;20637;-82
2022/06/24 11:28:37;;;;;;;13.48;2.42;;;;;;;31.64;19.63;98406.69;4474041;32;20168;-82
2022/06/24 11:31:19;;;;;;;8.13;1.98;;;;;;;31.74;19.81;98414.31;4475149;32;20084;-83
2022/06/24 11:33:47;;;;;;;8.00;1.73;;;;;;;31.83;19.87;98403.91;4488295;32;20118;-83
2022/06/24 11:36:16;;;;;;;6.75;2.30;;;;;;;31.87;19.83;98400.53;4474021;32;20092;-82
2022/06/24 11:39:09;;;;;;;5.97;1.73;;;;;;;31.96;19.72;98403.72;4488261;32;20085;-82
2022/06/24 11:41:39;;;;;;;8.02;2.20;;;;;;;31.81;19.71;98397.88;4485678;32;20119;-82
2022/06/24 11:44:05;;;;;;;6.47;2.10;;;;;;;31.81;19.92;98398.69;4488219;32;20157;-83